sim
Sign-in with your pilot id or email,
or register
Callsign
Passwort

Schedule Details

Flight Number: RYR6302 (2)
Departure: Barcelona El Prat Airport (LEBL) at 15:25
Arrival: Fuerteventura Airport (GCFV) at 18:45
Route: Ryanair Passenger Schedule. Enter filed route here before submitting Pirep.

Weather Information
Getting current METAR information for LEBL 160330Z 32010KT CAVOK 05/M01 Q1029 NOSIG
Getting current METAR information for GCFV 160330Z AUTO 28005KT 9999 NCD 14/11 Q1017

Schedule Frequency

Route Map